Aviation Digital Data Service (ADDS)

Output produced by METARs form (0214 UTC 19 February 2019)
found at http://www.aviationweather.gov/metar/data/
 
METAR text: RJDT 190200Z 11006KT 070V210 9999 -RA FEW002 BKN005 BKN008 12/12 Q1011
Conditions at: RJDT (TSUSHIMA AIRPORT, JP) observed 0200 UTC 19 February 2019
Temperature: 12.0°C (54°F)
Dewpoint: 12.0°C (54°F) [RH = 100%]
Pressure (altimeter): 29.85 inches Hg (1011.0 mb)
Winds: from the ESE (110 degrees) at 7 MPH (6 knots; 3.1 m/s)
Visibility: 6 or more miles (10+ km)
Ceiling: 500 feet AGL
Clouds: few clouds at 200 feet AGL
broken clouds at 500 feet AGL
broken clouds at 800 feet AGL
Weather: -RA  (light rain)

METAR text: RJDT 190100Z 09005KT 050V170 5000 -RA BR FEW002 BKN005 11/11 Q1012
Conditions at: RJDT (TSUSHIMA AIRPORT, JP) observed 0100 UTC 19 February 2019
Temperature: 11.0°C (52°F)
Dewpoint: 11.0°C (52°F) [RH = 100%]
Pressure (altimeter): 29.88 inches Hg (1012.0 mb)
Winds: from the E (90 degrees) at 6 MPH (5 knots; 2.6 m/s)
Visibility: 3 miles ( 5 km)
Ceiling: 500 feet AGL
Clouds: few clouds at 200 feet AGL
broken clouds at 500 feet AGL
Weather: -RA BR  (light rain, mist)

METAR text: RJDT 190040Z 08005KT 5000 -RA BR FEW002 BKN005 11/11 Q1012 RMK 1ST002 7ST005 A2991
Conditions at: RJDT (TSUSHIMA AIRPORT, JP) observed 0040 UTC 19 February 2019
Temperature: 11.0°C (52°F)
Dewpoint: 11.0°C (52°F) [RH = 100%]
Pressure (altimeter): 29.88 inches Hg (1012.0 mb)
Winds: from the E (80 degrees) at 6 MPH (5 knots; 2.6 m/s)
Visibility: 3 miles ( 5 km)
Ceiling: 500 feet AGL
Clouds: few clouds at 200 feet AGL
broken clouds at 500 feet AGL
Weather: -RA BR  (light rain, mist)

METAR text: RJDT 190034Z 08004KT 040V140 4000 RA BR FEW002 BKN005 11/11 Q1013 RMK 1ST002 7ST005 A2992
Conditions at: RJDT (TSUSHIMA AIRPORT, JP) observed 0034 UTC 19 February 2019
Temperature: 11.0°C (52°F)
Dewpoint: 11.0°C (52°F) [RH = 100%]
Pressure (altimeter): 29.91 inches Hg (1013.0 mb)
Winds: from the E (80 degrees) at 5 MPH (4 knots; 2.1 m/s)
Visibility: 2.49 miles (4.01 km)
Ceiling: 500 feet AGL
Clouds: few clouds at 200 feet AGL
broken clouds at 500 feet AGL
Weather: RA BR  (moderate rain, mist)

METAR text: RJDT 190023Z 08004KT 030V110 3000 RA BR FEW002 BKN005 11/11 Q1013 RMK 1ST002 7ST005 A2992
Conditions at: RJDT (TSUSHIMA AIRPORT, JP) observed 0023 UTC 19 February 2019
Temperature: 11.0°C (52°F)
Dewpoint: 11.0°C (52°F) [RH = 100%]
Pressure (altimeter): 29.91 inches Hg (1013.0 mb)
Winds: from the E (80 degrees) at 5 MPH (4 knots; 2.1 m/s)
Visibility: 1.86 miles (2.99 km)
Ceiling: 500 feet AGL
Clouds: few clouds at 200 feet AGL
broken clouds at 500 feet AGL
Weather: RA BR  (moderate rain, mist)

METAR text: RJDT 190000Z 09007KT 050V140 3000 -RA BR FEW002 BKN005 BKN010 11/11 Q1012
Conditions at: RJDT (TSUSHIMA AIRPORT, JP) observed 0000 UTC 19 February 2019
Temperature: 11.0°C (52°F)
Dewpoint: 11.0°C (52°F) [RH = 100%]
Pressure (altimeter): 29.88 inches Hg (1012.0 mb)
Winds: from the E (90 degrees) at 8 MPH (7 knots; 3.6 m/s)
Visibility: 1.86 miles (2.99 km)
Ceiling: 500 feet AGL
Clouds: few clouds at 200 feet AGL
broken clouds at 500 feet AGL
broken clouds at 1000 feet AGL
Weather: -RA BR  (light rain, mist)

METAR text: RJDT 182338Z 08007KT 030V150 3500 -RA BR FEW002 BKN005 BKN010 11/11 Q1012 RMK 1ST002 5ST005 7ST010 A2990
Conditions at: RJDT (TSUSHIMA AIRPORT, JP) observed 2338 UTC 18 February 2019
Temperature: 11.0°C (52°F)
Dewpoint: 11.0°C (52°F) [RH = 100%]
Pressure (altimeter): 29.88 inches Hg (1012.0 mb)
Winds: from the E (80 degrees) at 8 MPH (7 knots; 3.6 m/s)
Visibility: 2.17 miles (3.49 km)
Ceiling: 500 feet AGL
Clouds: few clouds at 200 feet AGL
broken clouds at 500 feet AGL
broken clouds at 1000 feet AGL
Weather: -RA BR  (light rain, mist)

METAR text: RJDT 182330Z 10009KT 070V150 4000 RA BR FEW002 BKN005 BKN010 11/11 Q1012 RMK 1ST002 5ST005 7ST010 A2991
Conditions at: RJDT (TSUSHIMA AIRPORT, JP) observed 2330 UTC 18 February 2019
Temperature: 11.0°C (52°F)
Dewpoint: 11.0°C (52°F) [RH = 100%]
Pressure (altimeter): 29.88 inches Hg (1012.0 mb)
Winds: from the E (100 degrees) at 10 MPH (9 knots; 4.6 m/s)
Visibility: 2.49 miles (4.01 km)
Ceiling: 500 feet AGL
Clouds: few clouds at 200 feet AGL
broken clouds at 500 feet AGL
broken clouds at 1000 feet AGL
Weather: RA BR  (moderate rain, mist)

METAR text: RJDT 182322Z 09008KT 2500 RA BR FEW002 BKN005 BKN010 11/11 Q1012 RMK 1ST002 5ST005 7ST010 A2991
Conditions at: RJDT (TSUSHIMA AIRPORT, JP) observed 2322 UTC 18 February 2019
Temperature: 11.0°C (52°F)
Dewpoint: 11.0°C (52°F) [RH = 100%]
Pressure (altimeter): 29.88 inches Hg (1012.0 mb)
Winds: from the E (90 degrees) at 9 MPH (8 knots; 4.1 m/s)
Visibility: 1.55 miles (2.49 km)
Ceiling: 500 feet AGL
Clouds: few clouds at 200 feet AGL
broken clouds at 500 feet AGL
broken clouds at 1000 feet AGL
Weather: RA BR  (moderate rain, mist)

METAR text: RJDT 182307Z 11011KT 2000 +RA BR FEW002 BKN005 11/11 Q1013 RMK 2ST002 7ST005 A2992
Conditions at: RJDT (TSUSHIMA AIRPORT, JP) observed 2307 UTC 18 February 2019
Temperature: 11.0°C (52°F)
Dewpoint: 11.0°C (52°F) [RH = 100%]
Pressure (altimeter): 29.91 inches Hg (1013.0 mb)
Winds: from the ESE (110 degrees) at 13 MPH (11 knots; 5.7 m/s)
Visibility: 1.24 miles (2.00 km)
Ceiling: 500 feet AGL
Clouds: few clouds at 200 feet AGL
broken clouds at 500 feet AGL
Weather: +RA BR  (heavy rain, mist)

METAR text: RJDT 182300Z 11013KT 2500 RA BR FEW002 BKN005 11/10 Q1013
Conditions at: RJDT (TSUSHIMA AIRPORT, JP) observed 2300 UTC 18 February 2019
Temperature: 11.0°C (52°F)
Dewpoint: 10.0°C (50°F) [RH = 94%]
Pressure (altimeter): 29.91 inches Hg (1013.0 mb)
Winds: from the ESE (110 degrees) at 15 MPH (13 knots; 6.7 m/s)
Visibility: 1.55 miles (2.49 km)
Ceiling: 500 feet AGL
Clouds: few clouds at 200 feet AGL
broken clouds at 500 feet AGL
Weather: RA BR  (moderate rain, mist)

METAR text: RJDT 182230Z 11015KT 3000 RA BR FEW003 BKN008 BKN015 11/10 Q1014
Conditions at: RJDT (TSUSHIMA AIRPORT, JP) observed 2230 UTC 18 February 2019
Temperature: 11.0°C (52°F)
Dewpoint: 10.0°C (50°F) [RH = 94%]
Pressure (altimeter): 29.94 inches Hg (1014.0 mb)
Winds: from the ESE (110 degrees) at 17 MPH (15 knots; 7.7 m/s)
Visibility: 1.86 miles (2.99 km)
Ceiling: 800 feet AGL
Clouds: few clouds at 300 feet AGL
broken clouds at 800 feet AGL
broken clouds at 1500 feet AGL
Weather: RA BR  (moderate rain, mist)

METAR text: RJDT 182205Z 11014KT 4000 -RA BR FEW003 SCT005 BKN008 10/10 Q1014 RMK 1ST003 4ST005 7ST008 A2995
Conditions at: RJDT (TSUSHIMA AIRPORT, JP) observed 2205 UTC 18 February 2019
Temperature: 10.0°C (50°F)
Dewpoint: 10.0°C (50°F) [RH = 100%]
Pressure (altimeter): 29.94 inches Hg (1014.0 mb)
Winds: from the ESE (110 degrees) at 16 MPH (14 knots; 7.2 m/s)
Visibility: 2.49 miles (4.01 km)
Ceiling: 800 feet AGL
Clouds: few clouds at 300 feet AGL
scattered clouds at 500 feet AGL
broken clouds at 800 feet AGL
Weather: -RA BR  (light rain, mist)

METAR text: RJDT 181100Z 29001KT 9999 -RA NSC 09/02 Q1023
Conditions at: RJDT (TSUSHIMA AIRPORT, JP) observed 1100 UTC 18 February 2019
Temperature: 9.0°C (48°F)
Dewpoint: 2.0°C (36°F) [RH = 61%]
Pressure (altimeter): 30.21 inches Hg (1023.0 mb)
Winds: from the WNW (290 degrees) at 1 MPH (1 knots; 0.5 m/s)
Visibility: 6 or more miles (10+ km)
Ceiling: at least 12,000 feet AGL
Clouds: sky clear below 12,000 feet AGL
Weather: -RA  (light rain)

METAR text: RJDT 181000Z VRB01KT CAVOK 09/00 Q1023
Conditions at: RJDT (TSUSHIMA AIRPORT, JP) observed 1000 UTC 18 February 2019
Temperature: 9.0°C (48°F)
Dewpoint: 0.0°C (32°F) [RH = 53%]
Pressure (altimeter): 30.21 inches Hg (1023.0 mb)
Winds: variable direction winds at 1 MPH (1 knots; 0.5 m/s)
Visibility: 6 or more miles (10+ km)
Ceiling: ceiling and visibility are OK
Clouds: unknown
Weather: no significant weather observed at this time

METAR text: RJDT 180900Z 25002KT 9999 -RA NSC 09/01 Q1023
Conditions at: RJDT (TSUSHIMA AIRPORT, JP) observed 0900 UTC 18 February 2019
Temperature: 9.0°C (48°F)
Dewpoint: 1.0°C (34°F) [RH = 57%]
Pressure (altimeter): 30.21 inches Hg (1023.0 mb)
Winds: from the WSW (250 degrees) at 2 MPH (2 knots; 1.0 m/s)
Visibility: 6 or more miles (10+ km)
Ceiling: at least 12,000 feet AGL
Clouds: sky clear below 12,000 feet AGL
Weather: -RA  (light rain)

METAR text: RJDT 180800Z VRB02KT 9999 -RA NSC 09/00 Q1023
Conditions at: RJDT (TSUSHIMA AIRPORT, JP) observed 0800 UTC 18 February 2019
Temperature: 9.0°C (48°F)
Dewpoint: 0.0°C (32°F) [RH = 53%]
Pressure (altimeter): 30.21 inches Hg (1023.0 mb)
Winds: variable direction winds at 2 MPH (2 knots; 1.0 m/s)
Visibility: 6 or more miles (10+ km)
Ceiling: at least 12,000 feet AGL
Clouds: sky clear below 12,000 feet AGL
Weather: -RA  (light rain)

METAR text: RJDT 180700Z VRB02KT CAVOK 10/M00 Q1022
Conditions at: RJDT (TSUSHIMA AIRPORT, JP) observed 0700 UTC 18 February 2019
Temperature: 10.0°C (50°F)
Dewpoint: 0.0°C (32°F) [RH = 50%]
Pressure (altimeter): 30.18 inches Hg (1022.0 mb)
Winds: variable direction winds at 2 MPH (2 knots; 1.0 m/s)
Visibility: 6 or more miles (10+ km)
Ceiling: ceiling and visibility are OK
Clouds: unknown
Weather: no significant weather observed at this time

METAR text: RJDT 180600Z 16005KT 100V270 CAVOK 10/M00 Q1022
Conditions at: RJDT (TSUSHIMA AIRPORT, JP) observed 0600 UTC 18 February 2019
Temperature: 10.0°C (50°F)
Dewpoint: 0.0°C (32°F) [RH = 50%]
Pressure (altimeter): 30.18 inches Hg (1022.0 mb)
Winds: from the SSE (160 degrees) at 6 MPH (5 knots; 2.6 m/s)
Visibility: 6 or more miles (10+ km)
Ceiling: ceiling and visibility are OK
Clouds: unknown
Weather: no significant weather observed at this time

METAR text: RJDT 180500Z VRB03KT CAVOK 11/00 Q1023
Conditions at: RJDT (TSUSHIMA AIRPORT, JP) observed 0500 UTC 18 February 2019
Temperature: 11.0°C (52°F)
Dewpoint: 0.0°C (32°F) [RH = 47%]
Pressure (altimeter): 30.21 inches Hg (1023.0 mb)
Winds: variable direction winds at 3 MPH (3 knots; 1.5 m/s)
Visibility: 6 or more miles (10+ km)
Ceiling: ceiling and visibility are OK
Clouds: unknown
Weather: no significant weather observed at this time

METAR text: RJDT 180400Z 11005KT CAVOK 10/00 Q1024
Conditions at: RJDT (TSUSHIMA AIRPORT, JP) observed 0400 UTC 18 February 2019
Temperature: 10.0°C (50°F)
Dewpoint: 0.0°C (32°F) [RH = 50%]
Pressure (altimeter): 30.24 inches Hg (1024.0 mb)
Winds: from the ESE (110 degrees) at 6 MPH (5 knots; 2.6 m/s)
Visibility: 6 or more miles (10+ km)
Ceiling: ceiling and visibility are OK
Clouds: unknown
Weather: no significant weather observed at this time

METAR text: RJDT 180300Z VRB03KT CAVOK 10/M00 Q1024
Conditions at: RJDT (TSUSHIMA AIRPORT, JP) observed 0300 UTC 18 February 2019
Temperature: 10.0°C (50°F)
Dewpoint: 0.0°C (32°F) [RH = 50%]
Pressure (altimeter): 30.24 inches Hg (1024.0 mb)
Winds: variable direction winds at 3 MPH (3 knots; 1.5 m/s)
Visibility: 6 or more miles (10+ km)
Ceiling: ceiling and visibility are OK
Clouds: unknown
Weather: no significant weather observed at this time

METAR text: RJDT 180200Z VRB02KT 9999 FEW020 BKN/// 10/M02 Q1025
Conditions at: RJDT (TSUSHIMA AIRPORT, JP) observed 0200 UTC 18 February 2019
Temperature: 10.0°C (50°F)
Dewpoint: -2.0°C (28°F) [RH = 43%]
Pressure (altimeter): 30.27 inches Hg (1025.0 mb)
Winds: variable direction winds at 2 MPH (2 knots; 1.0 m/s)
Visibility: 6 or more miles (10+ km)
Ceiling: at least 12,000 feet AGL
Clouds: few clouds at 2000 feet AGL
Weather: no significant weather observed at this time

METAR text: RJDT 180100Z 01004KT 330V050 CAVOK 09/M02 Q1025
Conditions at: RJDT (TSUSHIMA AIRPORT, JP) observed 0100 UTC 18 February 2019
Temperature: 9.0°C (48°F)
Dewpoint: -2.0°C (28°F) [RH = 46%]
Pressure (altimeter): 30.27 inches Hg (1025.0 mb)
Winds: from the N (10 degrees) at 5 MPH (4 knots; 2.1 m/s)
Visibility: 6 or more miles (10+ km)
Ceiling: ceiling and visibility are OK
Clouds: unknown
Weather: no significant weather observed at this time

METAR text: RJDT 180000Z 36003KT 320V060 CAVOK 07/M02 Q1025
Conditions at: RJDT (TSUSHIMA AIRPORT, JP) observed 0000 UTC 18 February 2019
Temperature: 7.0°C (45°F)
Dewpoint: -2.0°C (28°F) [RH = 53%]
Pressure (altimeter): 30.27 inches Hg (1025.0 mb)
Winds: from the N (360 degrees) at 3 MPH (3 knots; 1.5 m/s)
Visibility: 6 or more miles (10+ km)
Ceiling: ceiling and visibility are OK
Clouds: unknown
Weather: no significant weather observed at this time

METAR text: RJDT 172300Z 32003KT CAVOK 05/M02 Q1024
Conditions at: RJDT (TSUSHIMA AIRPORT, JP) observed 2300 UTC 17 February 2019
Temperature: 5.0°C (41°F)
Dewpoint: -2.0°C (28°F) [RH = 60%]
Pressure (altimeter): 30.24 inches Hg (1024.0 mb)
Winds: from the NW (320 degrees) at 3 MPH (3 knots; 1.5 m/s)
Visibility: 6 or more miles (10+ km)
Ceiling: ceiling and visibility are OK
Clouds: unknown
Weather: no significant weather observed at this time

METAR text: RJDT 172230Z 35003KT CAVOK 05/M02 Q1024
Conditions at: RJDT (TSUSHIMA AIRPORT, JP) observed 2230 UTC 17 February 2019
Temperature: 5.0°C (41°F)
Dewpoint: -2.0°C (28°F) [RH = 60%]
Pressure (altimeter): 30.24 inches Hg (1024.0 mb)
Winds: from the N (350 degrees) at 3 MPH (3 knots; 1.5 m/s)
Visibility: 6 or more miles (10+ km)
Ceiling: ceiling and visibility are OK
Clouds: unknown
Weather: no significant weather observed at this time